Time;durP1;ratioP1;P1;durP2;ratioP2;P2;SDS_P1;SDS_P2;PMS_P1;PMS_P2;Temp;Humidity;BMP_temperature;BMP_pressure;BME280_temperature;BME280_humidity;BME280_pressure;Samples;Min_cycle;Max_cycle;Signal;HPM_P1;HPM_P2
2021/11/12 00:13:58;;;;;;;;;;;;;;;28.38;71.33;100924.84;5069218;27;66327;-36
2021/11/12 00:16:28;;;;;;;;;;;;;;;28.38;71.89;100922.97;5084621;27;70267;-37
2021/11/12 00:18:59;;;;;;;;;;;;;;;28.40;71.26;100922.78;5062646;27;68006;-37
2021/11/12 00:21:29;;;;;;;;;;;;;;;28.43;71.56;100927.81;5082128;27;69163;-36
2021/11/12 00:24:01;;;;;;;;;;;;;;;28.46;72.01;100928.22;5090122;27;64048;-36
2021/11/12 00:26:35;;;;;;;;;;;;;;;28.51;71.78;100936.56;5081715;27;68876;-36
2021/11/12 00:29:11;;;;;;;;;;;;;;;28.58;71.87;100946.53;5049682;27;67036;-35
2021/11/12 00:31:59;;;;;;;;;;;;;;;28.57;69.04;100955.66;5057310;27;69757;-35
2021/11/12 00:37:54;;;;;;;;;;;;;;;28.64;67.48;100972.69;5085094;27;69950;-37
2021/11/12 00:40:40;;;;;;;;;;;;;;;28.67;66.89;100973.16;5071282;27;65577;-37
2021/11/12 00:43:41;;;;;;;;;;;;;;;28.71;67.14;100976.25;5087223;27;70041;-36
2021/11/12 00:46:36;;;;;;;;;;;;;;;28.74;67.19;100984.78;5094769;27;66292;-37
2021/11/12 00:49:25;;;;;;;;;;;;;;;28.78;66.78;100990.63;5064292;28;69877;-37
2021/11/12 00:55:40;;;;;;;;;;;;;;;28.84;67.16;100997.91;5053828;28;70051;-35
2021/11/12 00:58:37;;;;;;;;;;;;;;;28.86;66.76;101003.09;5061429;28;68141;-36
2021/11/12 01:01:19;;;;;;;;;;;;;;;28.88;67.38;101004.53;5090933;27;69379;-36
2021/11/12 01:04:31;;;;;;;;;;;;;;;28.91;67.11;101012.22;5066111;27;66593;-35
2021/11/12 01:07:08;;;;;;;;;;;;;;;28.93;67.38;101010.16;5062360;27;70949;-36
2021/11/12 01:09:52;;;;;;;;;;;;;;;28.95;67.45;101013.50;5084483;27;65348;-37
2021/11/12 01:12:44;;;;;;;;;;;;;;;28.98;67.04;101017.66;5096718;27;69380;-36
2021/11/12 01:15:26;;;;;;;;;;;;;;;29.00;67.47;101023.69;5081256;27;66906;-37
2021/11/12 01:18:02;;;;;;;;;;;;;;;29.02;67.10;101024.31;5100337;27;70342;-36
2021/11/12 01:20:51;;;;;;;;;;;;;;;29.04;67.60;101022.28;5090250;27;66722;-36
2021/11/12 01:23:28;;;;;;;;;;;;;;;29.06;67.28;101027.47;5096038;27;69213;-37
2021/11/12 01:26:37;;;;;;;;;;;;;;;29.08;67.17;101033.50;5112313;27;43718;-38
2021/11/12 01:29:24;;;;;;;;;;;;;;;29.10;67.19;101042.25;5107221;27;69195;-38
2021/11/12 01:32:26;;;;;;;;;;;;;;;29.13;67.66;101047.22;5086132;27;66364;-37
2021/11/12 01:35:12;;;;;;;;;;;;;;;29.15;67.74;101046.00;5091693;27;69391;-38
2021/11/12 01:38:25;;;;;;;;;;;;;;;29.17;67.71;101043.09;5085569;27;66300;-38
2021/11/12 01:41:07;;;;;;;;;;;;;;;29.19;67.77;101051.81;5072217;27;70743;-38
2021/11/12 01:43:54;;;;;;;;;;;;;;;29.22;67.75;101046.00;5091440;27;66678;-37
2021/11/12 01:46:57;;;;;;;;;;;;;;;29.24;67.22;101052.03;5088553;27;71126;-37
2021/11/12 01:49:37;;;;;;;;;;;;;;;29.27;67.76;101050.78;5068416;27;65732;-37
2021/11/12 01:52:26;;;;;;;;;;;;;;;29.28;67.63;101053.28;5106945;27;69170;-37
2021/11/12 01:55:15;;;;;;;;;;;;;;;29.30;67.66;101056.59;5088959;27;65758;-37
2021/11/12 01:58:38;;;;;;;;;;;;;;;29.32;67.91;101051.84;5073708;27;69634;-37
2021/11/12 02:01:23;;;;;;;;;;;;;;;29.34;67.82;101057.88;5086230;27;65788;-37
2021/11/12 02:04:25;;;;;;;;;;;;;;;29.37;67.32;101057.47;5084706;27;68895;-38
2021/11/12 02:07:13;;;;;;;;;;;;;;;29.39;67.71;101052.69;5088939;27;65485;-38
2021/11/12 02:09:55;;;;;;;;;;;;;;;29.41;67.79;101044.34;5082715;27;69607;-38
2021/11/12 02:13:26;;;;;;;;;;;;;;;29.44;67.83;101048.53;5075288;27;66722;-37
2021/11/12 02:15:43;;;;;;;;;;;;;;;29.46;67.24;101046.44;5067091;27;69025;-37
2021/11/12 02:18:48;;;;;;;;;;;;;;;29.49;67.38;101051.44;5062934;28;65798;-37
2021/11/12 02:22:10;;;;;;;;;;;;;;;29.53;67.32;101045.44;5061449;28;69132;-37
2021/11/12 02:25:25;;;;;;;;;;;;;;;29.56;67.59;101049.56;5059143;28;67328;-36
2021/11/12 02:28:19;;;;;;;;;;;;;;;29.59;67.31;101043.75;5067758;28;70615;-36
2021/11/12 02:30:53;;;;;;;;;;;;;;;29.61;67.44;101041.66;5070814;28;65807;-36
2021/11/12 02:33:36;;;;;;;;;;;;;;;29.62;67.68;101040.63;5069404;27;70173;-36
2021/11/12 02:36:21;;;;;;;;;;;;;;;29.64;67.52;101038.56;5078146;27;67125;-36
2021/11/12 02:39:16;;;;;;;;;;;;;;;29.67;67.44;101038.19;5057131;28;69982;-36
2021/11/12 02:42:01;;;;;;;;;;;;;;;29.68;67.29;101029.03;5054774;28;65429;-36
2021/11/12 02:44:55;;;;;;;;;;;;;;;29.71;67.23;101028.59;5059497;28;69668;-36
2021/11/12 02:47:47;;;;;;;;;;;;;;;29.72;67.21;101035.66;5049654;28;67691;-36
2021/11/12 02:50:27;;;;;;;;;;;;;;;29.71;67.60;101023.19;5054401;28;70301;-37
2021/11/12 02:53:16;;;;;;;;;;;;;;;29.75;67.63;101019.00;5054022;28;66278;-35
2021/11/12 02:56:23;;;;;;;;;;;;;;;29.78;67.56;101009.66;5048115;28;69459;-36
2021/11/12 02:59:11;;;;;;;;;;;;;;;29.79;67.15;101009.47;5056523;28;65770;-36
2021/11/12 03:02:03;;;;;;;;;;;;;;;29.82;67.19;101010.91;5057233;28;70477;-36
2021/11/12 03:05:11;;;;;;;;;;;;;;;29.84;66.90;101006.13;5057435;28;65681;-36
2021/11/12 03:08:04;;;;;;;;;;;;;;;29.84;67.01;100990.75;5061729;28;71535;-36
2021/11/12 03:10:58;;;;;;;;;;;;;;;29.90;66.71;100993.66;5039179;28;65678;-37
2021/11/12 03:13:58;;;;;;;;;;;;;;;29.93;66.57;100995.91;5056219;28;70078;-37
2021/11/12 03:16:34;;;;;;;;;;;;;;;29.94;66.79;100982.16;5065679;28;66672;-36
2021/11/12 03:19:24;;;;;;;;;;;;;;;29.98;66.38;100974.50;5055113;28;70061;-36
2021/11/12 03:22:06;;;;;;;;;;;;;;;29.99;66.52;100976.13;5055600;28;67326;-36
2021/11/12 03:24:53;;;;;;;;;;;;;;;30.02;66.51;100964.88;5054998;28;69990;-36
2021/11/12 03:27:30;;;;;;;;;;;;;;;30.04;66.36;100963.63;5064659;28;65668;-36
2021/11/12 03:30:31;;;;;;;;;;;;;;;30.06;66.50;100956.16;5050250;28;70755;-36
2021/11/12 04:06:46;;;;;;;;;;;;;;;30.40;65.05;100904.63;5056632;28;66529;-36
2021/11/12 05:11:22;;;;;;;;;;;;;;;31.01;63.39;100774.00;5051345;28;69711;-36
2021/11/12 05:34:19;;;;;;;;;;;;;;;31.21;62.91;100729.63;5054286;28;69755;-35
2021/11/12 05:50:10;;;;;;;;;;;;;;;31.33;62.43;100701.50;5053843;28;69902;-36
2021/11/12 05:55:30;;;;;;;;;;;;;;;31.39;62.82;100699.81;5054105;28;69726;-36
2021/11/12 05:58:00;;;;;;;;;;;;;;;31.39;62.41;100694.38;5053108;28;66574;-37
2021/11/12 06:00:30;;;;;;;;;;;;;;;31.42;62.42;100676.84;5025227;28;69963;-36
2021/11/12 06:03:01;;;;;;;;;;;;;;;31.42;62.65;100677.66;5053862;28;65638;-35
2021/11/12 06:05:32;;;;;;;;;;;;;;;31.44;62.35;100672.84;5052165;28;69796;-36
2021/11/12 06:08:02;;;;;;;;;;;;;;;31.46;62.27;100662.59;5054892;28;66330;-36
2021/11/12 06:10:33;;;;;;;;;;;;;;;31.50;62.18;100663.78;5052046;28;70047;-36
2021/11/12 06:13:03;;;;;;;;;;;;;;;31.49;62.50;100655.91;5068283;28;66564;-36
2021/11/12 06:15:34;;;;;;;;;;;;;;;31.54;62.08;100659.56;5047412;28;68940;-36
2021/11/12 06:18:06;;;;;;;;;;;;;;;31.54;61.96;100654.16;5053105;28;66508;-37
2021/11/12 06:20:36;;;;;;;;;;;;;;;31.59;62.03;100645.31;5048769;28;69950;-37
2021/11/12 06:23:07;;;;;;;;;;;;;;;31.57;62.18;100629.28;5052566;28;65559;-36
2021/11/12 06:25:38;;;;;;;;;;;;;;;31.66;62.02;100635.19;5054510;28;69313;-36
2021/11/12 06:28:08;;;;;;;;;;;;;;;31.69;62.09;100631.22;5056393;28;65534;-37
2021/11/12 06:30:38;;;;;;;;;;;;;;;31.72;62.05;100622.59;5056319;28;69342;-35
2021/11/12 06:33:09;;;;;;;;;;;;;;;31.71;62.16;100620.97;5058140;28;65642;-37
2021/11/12 06:35:39;;;;;;;;;;;;;;;31.76;62.25;100618.34;5056306;28;70398;-36
2021/11/12 06:38:11;;;;;;;;;;;;;;;31.78;62.25;100616.25;5056806;28;66581;-37
2021/11/12 06:40:43;;;;;;;;;;;;;;;31.80;62.14;100614.13;5056604;28;69725;-36
2021/11/12 06:49:19;;;;;;;;;;;;;;;31.87;61.76;100598.56;5033127;28;65693;-36
2021/11/12 06:51:50;;;;;;;;;;;;;;;31.89;61.95;100585.59;5053964;28;70362;-36
2021/11/12 06:54:20;;;;;;;;;;;;;;;31.91;62.03;100594.38;5057937;28;66347;-36
2021/11/12 06:56:51;;;;;;;;;;;;;;;31.93;62.00;100592.25;5054385;28;69432;-36
2021/11/12 06:59:22;;;;;;;;;;;;;;;31.95;61.87;100594.72;5056902;28;66905;-37
2021/11/12 07:02:09;;;;;;;;;;;;;;;31.96;61.88;100586.34;5054580;28;70175;-37
2021/11/12 07:04:54;;;;;;;;;;;;;;;31.98;62.02;100583.38;5028569;28;66029;-36
2021/11/12 07:07:28;;;;;;;;;;;;;;;31.98;61.95;100581.53;5055378;28;69639;-37
2021/11/12 07:10:00;;;;;;;;;;;;;;;32.00;61.79;100573.13;5055156;28;66187;-36
2021/11/12 07:12:31;;;;;;;;;;;;;;;32.00;61.71;100576.66;5055401;28;69856;-36
2021/11/12 07:15:14;;;;;;;;;;;;;;;32.01;61.70;100578.34;5056038;28;66928;-36
2021/11/12 07:17:47;;;;;;;;;;;;;;;32.02;61.98;100579.16;5072683;28;71385;-36
2021/11/12 07:20:23;;;;;;;;;;;;;;;32.03;62.10;100578.09;5038897;28;66322;-36
2021/11/12 07:23:05;;;;;;;;;;;;;;;32.03;61.95;100570.78;5055017;28;70260;-37
2021/11/12 07:25:42;;;;;;;;;;;;;;;32.07;61.95;100570.28;5056287;28;65609;-36
2021/11/12 07:28:15;;;;;;;;;;;;;;;32.08;61.37;100564.66;5054963;28;70317;-37
2021/11/12 07:30:50;;;;;;;;;;;;;;;32.11;61.68;100555.22;5055075;28;65349;-36
2021/11/12 07:33:24;;;;;;;;;;;;;;;32.12;61.93;100559.56;5055745;28;70032;-36
2021/11/12 07:36:11;;;;;;;;;;;;;;;32.12;61.65;100557.66;5055810;28;65663;-36
2021/11/12 07:38:54;;;;;;;;;;;;;;;32.16;61.74;100549.91;5052140;28;70695;-37
2021/11/12 07:47:24;;;;;;;;;;;;;;;32.21;61.37;100539.16;5052438;28;66901;-37
2021/11/12 07:49:59;;;;;;;;;;;;;;;32.24;61.23;100538.69;5054501;28;70115;-36
2021/11/12 07:52:33;;;;;;;;;;;;;;;32.26;61.17;100531.13;5049033;28;66621;-37
2021/11/12 07:55:07;;;;;;;;;;;;;;;32.26;61.11;100526.53;5055299;28;70022;-37
2021/11/12 07:57:45;;;;;;;;;;;;;;;32.29;61.00;100533.38;5056913;28;65785;-37
2021/11/12 08:00:16;;;;;;;;;;;;;;;32.31;61.50;100539.38;5055736;28;68962;-37
2021/11/12 08:02:49;;;;;;;;;;;;;;;32.30;61.25;100526.88;5056113;28;65834;-37
2021/11/12 08:05:29;;;;;;;;;;;;;;;32.31;61.22;100531.22;5052113;28;70278;-37
2021/11/12 08:08:05;;;;;;;;;;;;;;;32.33;61.15;100531.81;5037677;28;66077;-37
2021/11/12 08:10:49;;;;;;;;;;;;;;;32.32;61.03;100540.19;5051784;28;70644;-37
2021/11/12 08:13:31;;;;;;;;;;;;;;;32.33;61.43;100548.13;5061259;28;66460;-37
2021/11/12 08:18:55;;;;;;;;;;;;;;;32.35;61.33;100535.13;5054854;28;66506;-36
2021/11/12 08:21:49;;;;;;;;;;;;;;;32.37;61.34;100543.03;5054500;28;68609;-36
2021/11/12 08:30:17;;;;;;;;;;;;;;;32.40;61.14;100551.53;5053455;28;66441;-36
2021/11/12 08:33:04;;;;;;;;;;;;;;;32.44;61.53;100562.72;5051700;28;69716;-35
2021/11/12 08:41:18;;;;;;;;;;;;;;;32.53;61.38;100566.75;5038069;28;66645;-36
2021/11/12 08:43:55;;;;;;;;;;;;;;;32.57;61.38;100569.81;5053501;28;69884;-36
2021/11/12 08:46:30;;;;;;;;;;;;;;;32.58;61.18;100561.44;5038620;28;65312;-36
2021/11/12 08:49:16;;;;;;;;;;;;;;;32.62;61.23;100567.22;5047909;28;69552;-37
2021/11/12 08:51:49;;;;;;;;;;;;;;;32.63;61.09;100574.31;5054399;28;66544;-36
2021/11/12 08:54:26;;;;;;;;;;;;;;;32.64;61.17;100570.50;5053153;28;70756;-36
2021/11/12 08:56:56;;;;;;;;;;;;;;;32.68;61.07;100577.09;5053448;28;66467;-36
2021/11/12 08:59:27;;;;;;;;;;;;;;;32.68;61.02;100582.53;5055392;28;70321;-37
2021/11/12 09:01:59;;;;;;;;;;;;;;;32.71;61.30;100587.50;5053604;28;65721;-36
2021/11/12 09:04:30;;;;;;;;;;;;;;;32.72;61.19;100597.31;5049360;28;69824;-36
2021/11/12 09:07:00;;;;;;;;;;;;;;;32.72;61.11;100600.03;5054248;28;66522;-36
2021/11/12 09:09:33;;;;;;;;;;;;;;;32.73;61.24;100609.81;5053652;28;70482;-36
2021/11/12 09:12:09;;;;;;;;;;;;;;;32.74;61.33;100610.66;5054023;28;66417;-39
2021/11/12 09:14:44;;;;;;;;;;;;;;;32.75;61.10;100618.53;5047745;28;69676;-36
2021/11/12 09:17:16;;;;;;;;;;;;;;;32.76;61.21;100622.91;5048430;28;66930;-36
2021/11/12 09:19:57;;;;;;;;;;;;;;;32.77;61.15;100627.28;5056007;28;70497;-36
2021/11/12 09:22:34;;;;;;;;;;;;;;;32.79;61.19;100632.47;5053387;28;66345;-35
2021/11/12 09:25:05;;;;;;;;;;;;;;;32.81;61.36;100636.59;5065704;28;69975;-35
2021/11/12 09:27:36;;;;;;;;;;;;;;;32.71;61.17;100625.53;5054929;28;67360;-38
2021/11/12 09:30:09;;;;;;;;;;;;;;;32.85;61.22;100658.69;5055449;28;69974;-37
2021/11/12 09:32:39;;;;;;;;;;;;;;;32.86;61.13;100666.59;5054207;28;65886;-37
2021/11/12 09:35:10;;;;;;;;;;;;;;;32.86;61.27;100677.47;5053876;28;70211;-36
2021/11/12 09:37:41;;;;;;;;;;;;;;;32.88;61.19;100679.94;5049681;28;65694;-36
2021/11/12 09:40:12;;;;;;;;;;;;;;;32.86;61.24;100677.47;5055214;28;70072;-37
2021/11/12 09:42:42;;;;;;;;;;;;;;;32.88;60.95;100680.78;5053361;28;65788;-36
2021/11/12 09:45:15;;;;;;;;;;;;;;;32.90;60.82;100694.09;5053572;28;69483;-36
2021/11/12 09:47:45;;;;;;;;;;;;;;;32.89;60.84;100687.84;5057551;28;65664;-36
2021/11/12 09:50:18;;;;;;;;;;;;;;;32.90;60.94;100689.53;5055545;28;70211;-36
2021/11/12 09:52:49;;;;;;;;;;;;;;;32.89;61.15;100687.84;5059813;28;66754;-36
2021/11/12 09:55:20;;;;;;;;;;;;;;;32.89;60.92;100697.91;5055863;28;70096;-36
2021/11/12 09:57:50;;;;;;;;;;;;;;;32.89;60.82;100693.28;5055926;28;66013;-38
2021/11/12 10:00:24;;;;;;;;;;;;;;;32.88;60.96;100691.63;5054692;28;70335;-36
2021/11/12 10:03:06;;;;;;;;;;;;;;;32.87;60.99;100698.13;5055266;28;66790;-36
2021/11/12 10:05:42;;;;;;;;;;;;;;;32.88;61.02;100707.94;5047932;28;69710;-37
2021/11/12 10:08:21;;;;;;;;;;;;;;;32.87;61.00;100711.69;5044533;28;65561;-36
2021/11/12 10:10:54;;;;;;;;;;;;;;;32.84;60.85;100717.63;5050658;28;69845;-38
2021/11/12 10:13:28;;;;;;;;;;;;;;;32.84;61.44;100708.66;5051016;28;66260;-37
2021/11/12 10:16:43;;;;;;;;;;;;;;;32.85;61.93;100719.28;5036943;28;69429;-37
2021/11/12 10:19:06;;;;;;;;;;;;;;;32.84;62.99;100723.03;5038035;28;67009;-37
2021/11/12 10:21:39;;;;;;;;;;;;;;;32.87;62.57;100728.00;5041785;28;70282;-38
2021/11/12 10:24:16;;;;;;;;;;;;;;;32.88;62.85;100723.41;5048422;28;65820;-38
2021/11/12 10:26:49;;;;;;;;;;;;;;;32.88;62.80;100726.97;5045159;28;69676;-38
2021/11/12 10:29:25;;;;;;;;;;;;;;;32.85;63.25;100730.16;5048559;28;65803;-38
2021/11/12 10:32:01;;;;;;;;;;;;;;;32.88;63.23;100726.97;5039124;28;69544;-38
2021/11/12 10:34:33;;;;;;;;;;;;;;;32.86;63.72;100731.78;5042945;28;66954;-37
2021/11/12 10:37:05;;;;;;;;;;;;;;;32.85;64.02;100735.59;5050872;28;70253;-42
2021/11/12 10:39:42;;;;;;;;;;;;;;;32.59;65.32;100746.91;5060195;28;66539;-39
2021/11/12 10:42:14;;;;;;;;;;;;;;;32.34;65.44;100756.06;5060866;28;70286;-39
2021/11/12 10:44:46;;;;;;;;;;;;;;;32.18;66.28;100764.84;5060321;28;65689;-40
2021/11/12 10:47:18;;;;;;;;;;;;;;;32.10;66.29;100765.22;5030611;28;69969;-40
2021/11/12 10:49:50;;;;;;;;;;;;;;;32.04;66.99;100767.78;5056036;28;66618;-39
2021/11/12 10:52:23;;;;;;;;;;;;;;;31.99;67.78;100761.41;5048291;28;70355;-39
2021/11/12 10:55:12;;;;;;;;;;;;;;;31.91;68.06;100773.41;5044677;28;66275;-37
2021/11/12 10:57:46;;;;;;;;;;;;;;;31.94;68.33;100775.66;5043375;28;69081;-37
2021/11/12 11:00:24;;;;;;;;;;;;;;;31.92;69.59;100791.31;5052817;28;66837;-41
2021/11/12 11:02:57;;;;;;;;;;;;;;;31.91;70.42;100788.81;5023034;28;69123;-39
2021/11/12 11:05:32;;;;;;;;;;;;;;;32.13;69.07;100800.03;5052574;28;65642;-39
2021/11/12 11:08:04;;;;;;;;;;;;;;;32.22;68.59;100802.16;5052922;28;70547;-39
2021/11/12 11:10:39;;;;;;;;;;;;;;;32.32;68.53;100809.78;5058450;28;66180;-39
2021/11/12 11:13:11;;;;;;;;;;;;;;;32.36;67.98;100818.28;5058157;28;69213;-39
2021/11/12 11:15:44;;;;;;;;;;;;;;;32.38;67.85;100822.41;5059090;28;66733;-39
2021/11/12 11:23:51;;;;;;;;;;;;;;;32.43;67.36;100857.84;5052319;28;69402;-39
2021/11/12 11:26:23;;;;;;;;;;;;;;;32.44;67.25;100864.91;5054951;28;66803;-39
2021/11/12 11:28:54;;;;;;;;;;;;;;;32.42;67.09;100872.44;5055870;28;69860;-40
2021/11/12 11:31:27;;;;;;;;;;;;;;;32.42;67.17;100877.88;5055231;28;66702;-40
2021/11/12 11:33:59;;;;;;;;;;;;;;;32.40;67.11;100885.44;5055702;28;70016;-39
2021/11/12 11:36:31;;;;;;;;;;;;;;;32.40;67.28;100890.03;5054788;28;66794;-40
2021/11/12 11:39:04;;;;;;;;;;;;;;;32.38;67.04;100884.84;5056390;28;70177;-40
2021/11/12 11:41:35;;;;;;;;;;;;;;;32.37;67.15;100891.31;5053381;28;66517;-38
2021/11/12 11:44:05;;;;;;;;;;;;;;;32.34;66.88;100886.34;5049358;28;69321;-52
2021/11/12 11:46:38;;;;;;;;;;;;;;;32.34;67.19;100886.34;5050274;28;66413;-39
2021/11/12 11:49:10;;;;;;;;;;;;;;;32.33;66.85;100878.47;5054438;28;70001;-39
2021/11/12 11:51:50;;;;;;;;;;;;;;;32.31;66.97;100886.81;5055765;28;66722;-39
2021/11/12 11:54:22;;;;;;;;;;;;;;;32.30;66.88;100895.19;5055571;28;69489;-39
2021/11/12 11:56:56;;;;;;;;;;;;;;;32.28;66.95;100909.00;5057020;28;67113;-39
2021/11/12 11:59:29;;;;;;;;;;;;;;;32.27;67.13;100912.78;5056917;28;69510;-39
2021/11/12 12:02:02;;;;;;;;;;;;;;;32.24;66.72;100918.66;5053886;28;66242;-39
2021/11/12 12:04:34;;;;;;;;;;;;;;;32.22;66.77;100927.03;5055722;28;70347;-39
2021/11/12 12:07:15;;;;;;;;;;;;;;;32.21;66.89;100922.66;5050590;28;65432;-39
2021/11/12 12:10:06;;;;;;;;;;;;;;;32.20;66.76;100934.56;5050376;28;69662;-40
2021/11/12 12:12:37;;;;;;;;;;;;;;;32.19;67.09;100937.50;5044981;28;65468;-40
2021/11/12 12:15:09;;;;;;;;;;;;;;;32.15;67.40;100936.28;5056086;28;69219;-41
2021/11/12 12:17:44;;;;;;;;;;;;;;;32.15;67.28;100941.72;5056537;28;65335;-39
2021/11/12 13:20:58;;;;;;;;;;;;;;;31.38;67.27;101034.28;5044580;28;69187;-38
2021/11/12 13:24:37;;;;;;;;;;;;;;;31.04;66.03;101044.47;5045120;28;66017;-38
2021/11/12 13:27:10;;;;;;;;;;;;;;;30.80;64.55;101051.47;5046176;28;70421;-38
2021/11/12 13:30:10;;;;;;;;;;;;;;;30.59;62.65;101052.59;5048590;28;66296;-38
2021/11/12 13:34:07;;;;;;;;;;;;;;;30.42;61.31;101057.66;5051671;28;69703;-39
2021/11/12 13:36:54;;;;;;;;;;;;;;;30.26;60.32;101053.50;5055356;28;66370;-38
2021/11/12 13:39:39;;;;;;;;;;;;;;;30.19;59.94;101057.25;5049999;28;70374;-39
2021/11/12 13:42:19;;;;;;;;;;;;;;;29.97;59.10;101029.59;5043501;28;66747;-42
2021/11/12 13:44:59;;;;;;;;;;;;;;;30.02;59.82;101051.44;5049968;28;70268;-39
2021/11/12 13:48:13;;;;;;;;;;;;;;;29.99;60.34;101052.69;5042971;28;67878;-40
2021/11/12 13:51:09;;;;;;;;;;;;;;;29.93;59.51;101063.53;5052174;28;70026;-38
2021/11/12 13:54:03;;;;;;;;;;;;;;;29.91;60.37;101066.44;5025367;28;65411;-38
2021/11/12 13:56:47;;;;;;;;;;;;;;;29.86;60.38;101068.09;5045770;28;70176;-40
2021/11/12 13:59:52;;;;;;;;;;;;;;;29.79;60.55;101062.72;5044134;28;67039;-39
2021/11/12 14:03:08;;;;;;;;;;;;;;;29.70;59.86;101070.22;5038813;28;70160;-42
2021/11/12 14:06:32;;;;;;;;;;;;;;;29.69;58.82;101073.94;5040620;28;65782;-41
2021/11/12 14:09:22;;;;;;;;;;;;;;;29.64;58.33;101081.81;5040558;28;70362;-40
2021/11/12 14:12:49;;;;;;;;;;;;;;;29.57;57.93;101086.38;5039997;28;65541;-39
2021/11/12 14:15:58;;;;;;;;;;;;;;;29.53;57.11;101090.53;5039732;28;69445;-41
2021/11/12 14:24:59;;;;;;;;;;;;;;;29.38;55.17;101098.81;5048157;28;66270;-40
2021/11/12 14:28:20;;;;;;;;;;;;;;;29.35;54.67;101093.81;5040482;28;69279;-39
2021/11/12 14:31:12;;;;;;;;;;;;;;;29.31;54.76;101104.22;5046593;28;66404;-40
2021/11/12 14:34:10;;;;;;;;;;;;;;;29.28;54.02;101092.97;5036145;28;70054;-41
2021/11/12 14:37:42;;;;;;;;;;;;;;;29.25;53.77;101083.41;5050365;28;66263;-41
2021/11/12 14:40:23;;;;;;;;;;;;;;;29.19;53.84;101089.63;5049014;28;69803;-41
2021/11/12 14:45:40;;;;;;;;;;;;;;;29.16;53.27;101103.53;5051451;28;70641;-40
2021/11/12 14:48:29;;;;;;;;;;;;;;;29.10;52.93;101101.66;5048728;28;66335;-43
2021/11/12 14:51:14;;;;;;;;;;;;;;;29.08;52.90;101104.56;5050345;28;69135;-40
2021/11/12 14:56:25;;;;;;;;;;;;;;;29.02;52.36;101099.09;5061518;28;70378;-39
2021/11/12 14:59:19;;;;;;;;;;;;;;;28.98;52.05;101100.56;5067989;27;65924;-40
2021/11/12 15:01:51;;;;;;;;;;;;;;;28.96;51.78;101095.34;5037749;28;71072;-40
2021/11/12 15:04:23;;;;;;;;;;;;;;;28.91;52.10;101095.13;5052457;28;66797;-40
2021/11/12 15:06:55;;;;;;;;;;;;;;;28.89;51.50;101089.94;5052092;28;70279;-41
2021/11/12 15:09:33;;;;;;;;;;;;;;;28.89;51.92;101089.94;5017562;28;66292;-40
2021/11/12 15:12:07;;;;;;;;;;;;;;;28.87;51.66;101097.41;5056727;28;70349;-40
2021/11/12 15:14:59;;;;;;;;;;;;;;;28.85;51.32;101087.81;5046070;28;67011;-39
2021/11/12 15:17:30;;;;;;;;;;;;;;;28.83;51.52;101087.19;5046309;28;69908;-38
2021/11/12 15:20:02;;;;;;;;;;;;;;;28.85;51.64;101090.53;5047864;28;66240;-39
2021/11/12 15:30:20;;;;;;;;;;;;;;;28.86;54.83;101090.34;5057286;28;67084;-38
2021/11/12 15:32:58;;;;;;;;;;;;;;;28.79;55.90;101086.78;5053570;28;70593;-38
2021/11/12 15:35:30;;;;;;;;;;;;;;;28.71;57.05;101079.66;5056765;28;66598;-38
2021/11/12 15:38:16;;;;;;;;;;;;;;;28.63;58.03;101081.72;5053120;28;70017;-39
2021/11/12 15:40:53;;;;;;;;;;;;;;;28.52;58.48;101073.13;5053902;28;65895;-38
2021/11/12 15:43:26;;;;;;;;;;;;;;;28.45;58.73;101072.28;5054442;28;69569;-37
2021/11/12 15:48:59;;;;;;;;;;;;;;;28.37;59.57;101075.09;5036429;28;68616;-39
2021/11/12 15:51:41;;;;;;;;;;;;;;;28.35;59.38;101071.78;5049775;28;66362;-39
2021/11/12 15:54:35;;;;;;;;;;;;;;;28.35;59.33;101071.78;5050994;28;70409;-39
2021/11/12 15:57:47;;;;;;;;;;;;;;;28.34;59.15;101075.50;5047766;28;66518;-39
2021/11/12 16:00:32;;;;;;;;;;;;;;;28.29;58.63;101069.88;5049147;28;69844;-38
2021/11/12 16:08:35;;;;;;;;;;;;;;;28.17;58.83;101069.59;5046708;28;65639;-38
2021/11/12 16:11:34;;;;;;;;;;;;;;;28.13;58.80;101072.88;5045506;28;69839;-35
2021/11/12 16:14:12;;;;;;;;;;;;;;;28.10;59.01;101073.28;5045432;28;66412;-37
2021/11/12 16:25:28;;;;;;;;;;;;;;;27.97;59.03;101047.88;4970175;28;66239;-37
2021/11/12 16:28:17;;;;;;;;;;;;;;;27.95;59.05;101044.56;5047853;28;70753;-35
2021/11/12 16:31:01;;;;;;;;;;;;;;;27.94;59.30;101034.78;5047941;28;66307;-37
2021/11/12 16:34:19;;;;;;;;;;;;;;;27.92;58.81;101038.72;5035777;28;69598;-36
2021/11/12 16:37:01;;;;;;;;;;;;;;;27.88;59.12;101035.56;5048365;28;66336;-35
2021/11/12 16:39:38;;;;;;;;;;;;;;;27.84;58.74;101037.84;5053183;28;70085;-35
2021/11/12 16:45:07;;;;;;;;;;;;;;;28.16;56.04;101035.53;5045586;28;69889;-36
2021/11/12 16:47:46;;;;;;;;;;;;;;;28.21;55.37;101026.88;5040286;28;66798;-36
2021/11/12 16:53:27;;;;;;;;;;;;;;;28.24;54.00;101010.28;5053365;28;66230;-42
2021/11/12 16:58:48;;;;;;;;;;;;;;;28.23;53.58;100997.84;5052261;28;66396;-36
2021/11/12 17:48:43;;;;;;;;;;;;;;;27.94;50.97;100904.53;5053967;28;66863;-35
2021/11/12 17:51:36;;;;;;;;;;;;;;;27.94;50.86;100901.84;5041763;28;69510;-35
2021/11/12 18:05:20;;;;;;;;;;;;;;;27.87;50.70;100874.03;5049175;28;66978;-36
2021/11/12 18:08:17;;;;;;;;;;;;;;;27.85;50.81;100866.13;5049388;28;70615;-35
2021/11/12 18:20:19;;;;;;;;;;;;;;;27.75;50.44;100855.69;5048595;28;70211;-35
2021/11/12 21:45:10;;;;;;;;;;;;;;;27.34;48.01;100788.31;5051710;28;66714;-35
2021/11/12 21:47:40;;;;;;;;;;;;;;;27.32;47.86;100795.75;5054583;28;69997;-35
2021/11/12 21:50:11;;;;;;;;;;;;;;;27.32;48.24;100796.59;5053524;28;66701;-35
2021/11/12 21:52:41;;;;;;;;;;;;;;;27.33;48.24;100802.81;5058703;28;69958;-35
2021/11/12 21:55:11;;;;;;;;;;;;;;;27.31;47.92;100803.03;5053447;28;65577;-35
2021/11/12 21:57:42;;;;;;;;;;;;;;;27.31;48.13;100810.28;5053806;28;70505;-34
2021/11/12 22:00:13;;;;;;;;;;;;;;;27.31;48.11;100815.66;5053302;28;65967;-34
2021/11/12 22:02:44;;;;;;;;;;;;;;;27.28;48.14;100816.88;5054595;28;70088;-34
2021/11/12 22:05:14;;;;;;;;;;;;;;;27.29;48.15;100820.41;5049695;28;66295;-34
2021/11/12 22:07:45;;;;;;;;;;;;;;;27.28;48.36;100816.06;5054347;28;69544;-35
2021/11/12 22:10:17;;;;;;;;;;;;;;;27.29;48.48;100823.09;5054092;28;65950;-34
2021/11/12 22:12:48;;;;;;;;;;;;;;;27.28;48.61;100818.75;5052182;28;69413;-36
2021/11/12 22:15:18;;;;;;;;;;;;;;;27.30;48.71;100822.06;5053633;28;66672;-36
2021/11/12 22:17:49;;;;;;;;;;;;;;;27.14;48.54;100802.47;5053425;28;69200;-34
2021/11/12 22:20:21;;;;;;;;;;;;;;;27.27;48.66;100819.75;5051480;28;65747;-35
2021/11/12 22:22:52;;;;;;;;;;;;;;;27.28;48.88;100826.84;5053098;28;70404;-35
2021/11/12 22:25:22;;;;;;;;;;;;;;;27.29;48.79;100828.47;5062553;28;66288;-35
2021/11/12 22:28:14;;;;;;;;;;;;;;;27.30;48.71;100830.13;5050937;28;70024;-35
2021/11/12 22:30:54;;;;;;;;;;;;;;;27.30;48.59;100840.91;5056112;28;66611;-35
2021/11/12 22:33:24;;;;;;;;;;;;;;;27.29;49.21;100833.88;5053284;28;69797;-35
2021/11/12 22:35:55;;;;;;;;;;;;;;;27.29;48.91;100836.56;5053906;28;66958;-36
2021/11/12 22:38:26;;;;;;;;;;;;;;;27.29;49.07;100833.88;5051710;28;70359;-35
2021/11/12 22:40:57;;;;;;;;;;;;;;;27.29;48.89;100833.88;5067513;27;66571;-35
2021/11/12 22:43:31;;;;;;;;;;;;;;;27.28;49.16;100833.03;5052766;28;69229;-36
2021/11/12 22:46:02;;;;;;;;;;;;;;;27.27;48.85;100834.06;5038392;28;66794;-34
2021/11/12 22:48:33;;;;;;;;;;;;;;;27.25;48.91;100838.00;5035486;28;69753;-35
2021/11/12 22:51:03;;;;;;;;;;;;;;;27.26;48.62;100839.66;5047694;28;66184;-35
2021/11/12 22:53:33;;;;;;;;;;;;;;;27.23;48.86;100840.06;5047619;28;69516;-33
2021/11/12 22:56:04;;;;;;;;;;;;;;;27.22;48.95;100843.75;5041623;28;66228;-36
2021/11/12 22:58:34;;;;;;;;;;;;;;;27.21;49.01;100847.47;5042987;28;70567;-36
2021/11/12 23:01:04;;;;;;;;;;;;;;;27.15;49.89;100855.28;5048264;28;66998;-37
2021/11/12 23:03:36;;;;;;;;;;;;;;;27.18;51.38;100859.47;5057915;28;69125;-37